Time;durP1;ratioP1;P1;durP2;ratioP2;P2;SDS_P1;SDS_P2;PMS_P1;PMS_P2;Temp;Humidity;BMP_temperature;BMP_pressure;BME280_temperature;BME280_humidity;BME280_pressure;Samples;Min_cycle;Max_cycle;Signal;HPM_P1;HPM_P2
2022/09/22 00:01:27;;;;;;;20.35;14.80;;;;;;;6.97;86.81;102394.28;5002305;28;20113;-71
2022/09/22 00:03:55;;;;;;;20.70;14.23;;;;;;;6.94;87.12;102397.06;4989257;28;20057;-71
2022/09/22 00:06:23;;;;;;;30.67;16.35;;;;;;;6.89;87.30;102387.28;4994641;28;20058;-72
2022/09/22 00:08:51;;;;;;;18.50;14.18;;;;;;;6.89;86.55;102383.69;4989015;28;20065;-72
2022/09/22 00:11:19;;;;;;;19.23;13.60;;;;;;;6.89;86.64;102389.09;4988871;28;20161;-72
2022/09/22 00:13:51;;;;;;;20.52;14.90;;;;;;;6.86;87.09;102392.81;5003821;28;20037;-71
2022/09/22 00:16:20;;;;;;;27.33;15.23;;;;;;;6.84;86.74;102391.94;5003582;28;20042;-71
2022/09/22 00:18:46;;;;;;;19.45;14.63;;;;;;;6.82;86.90;102387.53;5001576;28;20049;-71
2022/09/22 00:21:15;;;;;;;24.50;15.95;;;;;;;6.78;87.19;102388.56;5006753;28;20022;-71
2022/09/22 00:23:41;;;;;;;22.38;14.68;;;;;;;6.77;87.44;102393.09;4992575;28;20042;-71
2022/09/22 00:26:12;;;;;;;22.67;14.40;;;;;;;6.74;87.87;102386.88;4993711;28;20053;-71
2022/09/22 00:28:40;;;;;;;17.23;12.85;;;;;;;6.71;87.55;102386.97;5011805;28;20045;-71
2022/09/22 00:31:12;;;;;;;18.70;13.48;;;;;;;6.68;87.86;102387.09;4998487;28;20030;-71
2022/09/22 00:33:39;;;;;;;17.58;13.18;;;;;;;6.64;88.20;102381.75;4992327;28;20536;-71
2022/09/22 00:36:05;;;;;;;16.00;12.50;;;;;;;6.62;87.94;102391.75;5006920;28;20036;-71
2022/09/22 00:38:32;;;;;;;15.05;10.93;;;;;;;6.58;87.88;102390.09;5005226;28;20485;-71
2022/09/22 00:40:59;;;;;;;16.95;11.88;;;;;;;6.55;87.37;102389.28;5011615;28;20710;-71
2022/09/22 00:43:27;;;;;;;16.05;11.40;;;;;;;6.50;88.35;102378.59;5011526;28;20034;-71
2022/09/22 00:46:01;;;;;;;14.77;11.38;;;;;;;6.47;87.99;102380.50;5007219;28;20486;-71
2022/09/22 00:48:31;;;;;;;14.85;11.20;;;;;;;6.46;87.42;102379.63;5006947;28;20493;-71
2022/09/22 00:51:00;;;;;;;16.25;11.88;;;;;;;6.44;88.05;102381.50;4992083;28;20351;-71
2022/09/22 00:53:25;;;;;;;15.65;10.70;;;;;;;6.44;87.89;102383.34;4992139;28;20379;-71
2022/09/22 00:55:56;;;;;;;16.52;11.05;;;;;;;6.45;88.11;102379.69;5015731;28;20041;-71
2022/09/22 00:58:30;;;;;;;18.70;11.85;;;;;;;6.43;88.50;102374.31;4999764;28;20039;-71
2022/09/22 01:00:55;;;;;;;23.25;11.52;;;;;;;6.39;88.78;102369.97;4991737;28;20046;-70
2022/09/22 01:03:23;;;;;;;19.52;11.50;;;;;;;6.38;88.51;102369.03;4996935;28;20030;-71
2022/09/22 01:05:51;;;;;;;16.10;10.80;;;;;;;6.36;88.00;102361.94;4995182;28;20045;-71
2022/09/22 01:08:19;;;;;;;16.52;10.73;;;;;;;6.37;87.82;102356.47;4996836;28;20045;-71
2022/09/22 01:10:47;;;;;;;14.02;11.02;;;;;;;6.36;87.76;102361.94;5011120;28;20117;-71
2022/09/22 01:13:40;;;;;;;16.60;11.07;;;;;;;6.36;87.47;102359.22;4995983;28;20034;-71
2022/09/22 01:16:43;;;;;;;13.57;10.80;;;;;;;6.37;87.17;102359.16;4990711;28;20050;-71
2022/09/22 01:19:34;;;;;;;15.60;11.38;;;;;;;6.33;87.28;102349.38;4991071;28;20038;-71
2022/09/22 01:22:13;;;;;;;13.10;10.65;;;;;;;6.32;87.03;102347.63;4998301;28;20041;-71
2022/09/22 01:24:47;;;;;;;15.23;10.02;;;;;;;6.31;87.59;102348.56;4991055;28;20440;-71
2022/09/22 01:27:22;;;;;;;13.52;10.13;;;;;;;6.31;87.48;102347.69;4998515;28;20087;-71
2022/09/22 01:30:22;;;;;;;15.80;10.30;;;;;;;6.28;87.21;102342.34;5007900;28;20030;-70
2022/09/22 01:33:18;;;;;;;13.05;10.63;;;;;;;6.23;87.37;102345.19;5006950;28;20054;-70
2022/09/22 01:36:08;;;;;;;18.75;10.27;;;;;;;6.20;87.93;102347.09;4994155;28;20050;-71
2022/09/22 01:38:45;;;;;;;15.85;11.05;;;;;;;6.16;88.03;102340.03;5006068;28;20490;-71
2022/09/22 01:41:20;;;;;;;12.20;10.05;;;;;;;6.14;88.09;102337.38;4991044;28;20045;-71
2022/09/22 01:43:55;;;;;;;13.15;10.02;;;;;;;6.13;87.70;102341.00;4990924;28;20057;-71
2022/09/22 01:46:32;;;;;;;11.80;9.35;;;;;;;6.09;88.00;102332.09;5013156;28;20062;-71
2022/09/22 01:49:01;;;;;;;13.10;9.85;;;;;;;6.07;88.06;102338.50;4990852;28;20042;-71
2022/09/22 01:51:36;;;;;;;14.05;10.48;;;;;;;6.06;88.38;102326.81;5004723;28;20642;-70
2022/09/22 01:54:10;;;;;;;13.77;9.90;;;;;;;6.06;88.60;102331.28;5008143;28;20606;-70
2022/09/22 01:56:37;;;;;;;13.00;9.68;;;;;;;6.03;88.45;102328.69;5010773;28;20038;-70
2022/09/22 01:59:06;;;;;;;14.95;10.48;;;;;;;5.99;88.44;102330.59;5001636;28;20031;-70
2022/09/22 02:01:51;;;;;;;11.95;9.45;;;;;;;5.99;88.13;102321.63;4990483;28;20038;-71
2022/09/22 02:04:28;;;;;;;12.35;9.10;;;;;;;5.99;88.40;102324.31;4990310;28;20504;-70
2022/09/22 02:07:05;;;;;;;13.75;10.05;;;;;;;6.00;87.79;102321.56;4990520;28;20138;-70
2022/09/22 02:09:33;;;;;;;16.38;11.23;;;;;;;5.98;88.05;102319.84;4990598;28;20073;-71
2022/09/22 02:12:00;;;;;;;15.10;10.20;;;;;;;5.95;87.44;102325.34;5003116;28;20023;-71
2022/09/22 02:14:25;;;;;;;11.70;9.45;;;;;;;5.94;87.42;102315.47;4988936;28;20136;-70
2022/09/22 02:16:53;;;;;;;16.23;11.57;;;;;;;5.92;87.75;102314.59;4991451;28;20461;-70
2022/09/22 02:19:38;;;;;;;15.57;11.15;;;;;;;5.92;87.30;102315.50;5005046;28;20113;-71
2022/09/22 02:22:05;;;;;;;18.90;12.13;;;;;;;5.88;88.66;102311.09;5005300;28;20029;-70
2022/09/22 02:24:40;;;;;;;16.17;11.00;;;;;;;5.85;88.50;102311.19;5008327;28;20050;-70
2022/09/22 02:27:15;;;;;;;14.45;10.95;;;;;;;5.83;88.37;102307.66;5010221;28;20121;-70
2022/09/22 02:29:59;;;;;;;14.80;10.18;;;;;;;5.82;88.69;102308.56;5009834;28;20492;-70
2022/09/22 02:32:26;;;;;;;14.55;10.43;;;;;;;5.78;88.93;102305.09;4992910;28;20655;-70
2022/09/22 02:34:52;;;;;;;16.40;11.55;;;;;;;5.74;88.55;102303.41;4990588;28;20017;-70
2022/09/22 02:37:23;;;;;;;13.15;10.13;;;;;;;5.74;88.51;102303.41;5007894;28;20046;-71
2022/09/22 02:40:09;;;;;;;14.85;10.50;;;;;;;5.73;89.06;102298.91;5008998;28;20050;-70
2022/09/22 02:42:51;;;;;;;13.27;10.30;;;;;;;5.73;88.29;102303.44;5001026;28;20442;-70
2022/09/22 02:45:23;;;;;;;21.25;11.10;;;;;;;5.69;88.64;102296.34;5008395;28;20179;-71
2022/09/22 02:47:56;;;;;;;14.80;10.80;;;;;;;5.67;88.65;102288.28;4992140;28;20042;-71
2022/09/22 02:50:22;;;;;;;16.25;10.05;;;;;;;5.67;88.18;102291.00;4994671;28;20540;-71
2022/09/22 02:52:52;;;;;;;14.60;9.85;;;;;;;5.66;88.29;102286.53;4989657;28;20085;-71
2022/09/22 02:55:18;;;;;;;14.63;11.57;;;;;;;5.63;88.85;102284.78;5004885;28;20454;-71
2022/09/22 02:57:43;;;;;;;21.98;11.82;;;;;;;5.62;88.86;102284.84;5003657;28;20699;-70
2022/09/22 03:00:09;;;;;;;15.77;11.02;;;;;;;5.59;88.87;102280.41;5004833;28;20076;-70
2022/09/22 03:02:35;;;;;;;17.70;12.40;;;;;;;5.58;88.79;102289.44;4988742;28;20026;-70
2022/09/22 03:05:01;;;;;;;20.10;11.85;;;;;;;5.56;88.75;102279.63;5006699;28;20122;-70
2022/09/22 03:07:26;;;;;;;17.70;12.43;;;;;;;5.56;89.01;102288.63;5006751;28;20154;-70
2022/09/22 03:09:52;;;;;;;20.35;11.90;;;;;;;5.54;88.99;102285.06;5005790;28;20029;-70
2022/09/22 03:12:17;;;;;;;18.00;12.68;;;;;;;5.49;89.14;102270.81;4996942;28;20398;-70
2022/09/22 03:14:43;;;;;;;17.17;11.35;;;;;;;5.52;88.81;102283.34;4999036;28;20045;-70
2022/09/22 03:17:08;;;;;;;17.50;11.55;;;;;;;5.49;88.99;102273.50;4997580;28;20462;-70
2022/09/22 03:19:33;;;;;;;16.70;12.07;;;;;;;5.50;89.01;102280.69;4989222;28;20100;-70
2022/09/22 03:21:59;;;;;;;18.90;11.77;;;;;;;5.45;89.12;102274.50;5003414;28;20018;-70
2022/09/22 03:24:24;;;;;;;18.92;12.75;;;;;;;5.46;89.09;102279.00;4988003;28;20402;-70
2022/09/22 03:26:49;;;;;;;17.63;11.70;;;;;;;5.44;89.26;102277.28;4997312;28;20397;-70
2022/09/22 03:29:15;;;;;;;18.15;11.68;;;;;;;5.39;89.69;102274.69;5008877;28;20034;-71
2022/09/22 03:31:40;;;;;;;19.88;11.85;;;;;;;5.40;89.63;102270.19;5001203;28;20071;-70
2022/09/22 03:34:05;;;;;;;16.63;12.52;;;;;;;5.36;89.71;102266.69;4999100;28;20029;-70
2022/09/22 03:36:31;;;;;;;17.70;12.07;;;;;;;5.37;89.19;102268.47;4997987;28;20046;-70
2022/09/22 03:38:58;;;;;;;15.13;10.88;;;;;;;5.34;88.94;102260.44;5007330;28;20064;-71
2022/09/22 03:41:23;;;;;;;13.90;10.50;;;;;;;5.33;88.94;102261.38;4994099;28;20084;-70
2022/09/22 03:43:49;;;;;;;17.45;11.57;;;;;;;5.33;88.60;102261.38;4987857;28;20038;-70
2022/09/22 03:46:15;;;;;;;17.27;12.23;;;;;;;5.31;88.76;102266.81;4991351;28;20029;-71
2022/09/22 03:48:40;;;;;;;16.15;10.80;;;;;;;5.30;89.02;102266.84;4999779;28;20026;-71
2022/09/22 03:51:05;;;;;;;19.00;12.82;;;;;;;5.28;89.22;102263.34;4999305;28;20038;-70
2022/09/22 03:53:31;;;;;;;15.35;11.50;;;;;;;5.26;89.25;102257.97;5011157;28;20088;-70
2022/09/22 03:56:23;;;;;;;16.90;12.10;;;;;;;5.26;88.98;102263.34;5012720;28;20069;-70
2022/09/22 03:58:48;;;;;;;14.98;11.40;;;;;;;5.23;89.48;102262.56;5003775;28;20583;-70
2022/09/22 04:01:14;;;;;;;16.13;12.10;;;;;;;5.22;89.10;102260.78;5008493;28;20030;-70
2022/09/22 04:03:39;;;;;;;14.20;10.43;;;;;;;5.18;89.50;102260.00;5003642;28;20038;-70
2022/09/22 04:06:05;;;;;;;13.65;10.82;;;;;;;5.16;89.51;102259.13;5005873;28;20074;-70
2022/09/22 04:08:31;;;;;;;16.20;10.55;;;;;;;5.15;89.57;102251.97;5007925;28;20481;-70
2022/09/22 04:10:56;;;;;;;17.40;11.40;;;;;;;5.16;89.32;102250.16;5005992;28;20087;-70
2022/09/22 04:13:22;;;;;;;20.40;11.95;;;;;;;5.15;89.22;102254.69;5012748;28;20058;-70
2022/09/22 04:15:47;;;;;;;21.55;13.15;;;;;;;5.14;89.27;102250.22;4993612;28;20353;-70
2022/09/22 04:18:13;;;;;;;16.55;11.90;;;;;;;5.13;89.58;102245.75;5003124;28;20038;-70
2022/09/22 04:20:43;;;;;;;16.83;11.70;;;;;;;5.10;89.60;102246.72;4999658;28;20077;-70
2022/09/22 04:23:13;;;;;;;17.40;11.75;;;;;;;5.08;89.79;102248.59;4999244;28;20104;-70
2022/09/22 04:25:38;;;;;;;16.55;11.80;;;;;;;5.05;89.30;102243.25;5000667;28;20126;-70
2022/09/22 04:28:04;;;;;;;17.27;12.80;;;;;;;5.06;90.02;102250.41;5022862;28;20061;-70
2022/09/22 04:30:31;;;;;;;18.52;12.07;;;;;;;5.02;89.52;102237.94;4992397;28;20042;-70
2022/09/22 04:32:58;;;;;;;16.13;11.63;;;;;;;5.00;89.48;102245.19;4992065;28;20030;-70
2022/09/22 04:35:24;;;;;;;17.88;12.48;;;;;;;4.98;89.76;102241.63;5001536;28;20084;-70
2022/09/22 04:37:50;;;;;;;15.77;11.52;;;;;;;4.95;89.70;102241.75;4993831;28;20030;-70
2022/09/22 04:40:17;;;;;;;14.05;10.95;;;;;;;4.94;88.84;102244.44;5006199;28;20490;-70
2022/09/22 04:42:45;;;;;;;17.48;11.80;;;;;;;4.94;89.16;102239.06;5000644;28;20108;-70
2022/09/22 04:45:10;;;;;;;15.68;11.60;;;;;;;4.94;89.40;102244.44;5010305;28;20477;-71
2022/09/22 04:47:35;;;;;;;16.88;11.68;;;;;;;4.90;89.87;102243.69;4993280;28;20041;-71
2022/09/22 04:50:01;;;;;;;18.20;12.20;;;;;;;4.89;89.75;102238.31;5005363;28;20060;-70
2022/09/22 04:52:26;;;;;;;15.45;11.32;;;;;;;4.89;89.60;102236.50;4991847;28;20054;-70
2022/09/22 04:54:51;;;;;;;16.65;12.30;;;;;;;4.88;89.89;102244.63;4992384;28;20693;-70
2022/09/22 04:57:17;;;;;;;15.70;11.73;;;;;;;4.87;90.26;102243.75;4997466;28;20518;-71
2022/09/22 04:59:42;;;;;;;17.48;12.27;;;;;;;4.86;90.51;102247.38;4992673;28;20034;-71
2022/09/22 05:02:08;;;;;;;17.10;11.60;;;;;;;4.80;90.75;102242.13;4999471;28;20037;-71
2022/09/22 05:04:33;;;;;;;20.50;12.65;;;;;;;4.78;90.56;102247.56;4991313;28;20037;-70
2022/09/22 05:06:59;;;;;;;19.40;11.60;;;;;;;4.77;90.20;102247.63;4996852;28;20048;-70
2022/09/22 05:09:24;;;;;;;15.77;11.88;;;;;;;4.77;89.99;102240.41;5009338;28;20474;-70
2022/09/22 05:11:50;;;;;;;17.23;11.00;;;;;;;4.78;89.66;102252.94;5007540;28;20030;-70
2022/09/22 05:14:16;;;;;;;17.90;11.40;;;;;;;4.78;89.26;102249.38;4990831;28;20052;-71
2022/09/22 05:16:42;;;;;;;16.60;11.68;;;;;;;4.76;89.46;102243.16;5003776;28;20086;-70
2022/09/22 05:19:08;;;;;;;16.42;12.35;;;;;;;4.76;90.30;102249.44;5002435;28;20053;-70
2022/09/22 05:21:35;;;;;;;17.00;12.32;;;;;;;4.75;89.86;102249.44;5005899;28;20025;-70
2022/09/22 05:24:01;;;;;;;18.48;12.55;;;;;;;4.73;90.31;102248.63;5003228;28;20050;-70
2022/09/22 05:26:26;;;;;;;17.23;13.00;;;;;;;4.71;90.42;102250.44;5001085;28;20091;-70
2022/09/22 05:28:52;;;;;;;19.42;13.88;;;;;;;4.68;90.73;102251.44;5008104;28;20049;-71
2022/09/22 05:31:17;;;;;;;18.45;12.70;;;;;;;4.67;90.68;102246.97;5006993;28;20030;-71
2022/09/22 05:33:43;;;;;;;21.50;13.05;;;;;;;4.68;90.80;102251.44;4997046;28;20085;-71
2022/09/22 05:36:08;;;;;;;20.02;12.38;;;;;;;4.68;90.35;102254.13;4999025;28;20485;-71
2022/09/22 05:38:34;;;;;;;20.20;14.25;;;;;;;4.64;90.92;102252.44;5005324;28;20383;-71
2022/09/22 05:41:00;;;;;;;18.23;13.75;;;;;;;4.64;90.74;102248.84;5007379;28;20034;-71
2022/09/22 05:43:25;;;;;;;20.35;14.13;;;;;;;4.65;90.56;102256.88;5010300;28;20107;-71
2022/09/22 05:45:50;;;;;;;19.58;14.52;;;;;;;4.67;90.05;102246.97;4993967;28;20474;-71
2022/09/22 05:48:16;;;;;;;22.45;13.95;;;;;;;4.72;90.54;102263.03;4990934;28;20065;-71
2022/09/22 05:50:42;;;;;;;22.85;14.68;;;;;;;4.71;90.52;102256.75;5001663;28;20041;-71
2022/09/22 05:53:09;;;;;;;22.02;14.05;;;;;;;4.71;90.37;102264.84;5002329;28;20050;-71
2022/09/22 05:55:35;;;;;;;22.33;13.85;;;;;;;4.72;90.54;102269.28;5008637;28;20045;-71
2022/09/22 05:58:01;;;;;;;20.08;13.18;;;;;;;4.73;90.62;102265.66;5010291;28;20022;-71
2022/09/22 06:00:27;;;;;;;18.25;12.05;;;;;;;4.70;90.89;102256.75;5019695;28;20046;-71
2022/09/22 06:02:53;;;;;;;17.83;12.13;;;;;;;4.69;90.99;102261.28;5005033;28;20030;-71
2022/09/22 06:05:19;;;;;;;18.40;12.82;;;;;;;4.74;91.22;102263.84;5005380;28;20046;-71
2022/09/22 06:07:44;;;;;;;15.98;11.40;;;;;;;4.74;91.02;102266.56;5001862;28;20581;-71
2022/09/22 06:10:10;;;;;;;16.67;12.18;;;;;;;4.77;90.75;102270.06;5007788;28;20116;-71
2022/09/22 06:12:36;;;;;;;17.95;13.10;;;;;;;4.81;90.79;102274.47;5004509;28;20053;-71
2022/09/22 06:15:03;;;;;;;16.98;11.93;;;;;;;4.83;90.29;102271.72;4989501;28;20026;-70
2022/09/22 06:17:28;;;;;;;17.25;11.88;;;;;;;4.86;90.10;102269.81;4999557;28;20492;-71
2022/09/22 06:19:53;;;;;;;15.70;12.40;;;;;;;4.87;90.25;102262.63;5001492;28;20131;-70
2022/09/22 06:22:19;;;;;;;20.33;12.73;;;;;;;4.92;90.21;102270.59;4989854;28;20121;-71
2022/09/22 06:24:44;;;;;;;16.20;12.27;;;;;;;4.95;90.14;102265.13;5005032;28;20042;-71
2022/09/22 06:27:10;;;;;;;17.13;12.35;;;;;;;4.95;90.51;102259.75;5007684;28;20492;-71
2022/09/22 06:29:36;;;;;;;18.60;12.80;;;;;;;5.01;90.08;102260.44;5009790;28;20400;-71
2022/09/22 06:32:02;;;;;;;21.45;12.95;;;;;;;5.07;90.33;102256.69;5007861;28;20041;-71
2022/09/22 06:34:28;;;;;;;18.33;12.88;;;;;;;5.10;90.31;102262.00;4994667;28;20038;-70
2022/09/22 06:36:56;;;;;;;19.48;13.73;;;;;;;5.13;89.92;102256.53;4990608;28;20513;-71
2022/09/22 06:39:22;;;;;;;19.40;13.60;;;;;;;5.19;90.39;102259.06;4990415;28;20049;-71
2022/09/22 06:41:48;;;;;;;22.08;15.63;;;;;;;5.21;90.37;102256.31;4990317;28;20106;-71
2022/09/22 06:44:14;;;;;;;20.17;13.98;;;;;;;5.26;90.08;102254.38;4989784;28;20050;-71
2022/09/22 06:46:40;;;;;;;21.50;15.95;;;;;;;5.33;90.24;102259.56;5004040;28;20133;-71
2022/09/22 06:49:06;;;;;;;32.85;19.15;;;;;;;5.41;92.59;102258.44;4991922;28;20144;-71
2022/09/22 06:51:34;;;;;;;29.42;19.58;;;;;;;5.49;93.66;102260.00;4990307;28;20046;-71
2022/09/22 06:54:05;;;;;;;27.70;18.10;;;;;;;5.55;93.71;102264.38;4989928;28;20026;-70
2022/09/22 06:56:38;;;;;;;23.20;16.10;;;;;;;5.57;92.53;102260.69;4994417;28;20481;-70
2022/09/22 06:59:09;;;;;;;29.33;19.15;;;;;;;5.65;93.28;102254.19;5004494;28;20101;-71
2022/09/22 07:01:35;;;;;;;35.25;21.75;;;;;;;5.73;94.56;102255.72;5003668;28;20038;-71
2022/09/22 07:04:00;;;;;;;28.70;19.67;;;;;;;5.79;94.52;102250.16;4989483;28;20390;-71
2022/09/22 07:06:25;;;;;;;36.28;23.02;;;;;;;5.88;95.37;102255.28;5002677;28;20501;-71
2022/09/22 07:08:51;;;;;;;42.97;23.83;;;;;;;5.97;96.10;102255.94;5005171;28;20034;-71
2022/09/22 07:11:22;;;;;;;37.47;25.75;;;;;;;6.07;96.73;102254.75;4988373;28;20129;-71
2022/09/22 07:13:50;;;;;;;43.63;26.50;;;;;;;6.14;97.26;102246.38;4989503;28;20476;-71
2022/09/22 07:16:16;;;;;;;36.90;24.38;;;;;;;6.23;97.67;102257.84;4989491;28;20125;-71
2022/09/22 07:18:44;;;;;;;38.70;25.10;;;;;;;6.30;97.77;102252.19;4989595;28;20044;-71
2022/09/22 07:21:19;;;;;;;40.97;25.60;;;;;;;6.39;98.31;102248.31;4989381;28;20442;-71
2022/09/22 07:23:45;;;;;;;47.72;27.05;;;;;;;6.50;98.93;102247.97;4989691;28;20042;-71
2022/09/22 07:26:13;;;;;;;45.50;27.52;;;;;;;6.61;98.74;102245.78;4990955;28;20454;-71
2022/09/22 07:28:39;;;;;;;49.13;28.70;;;;;;;6.70;99.28;102239.16;5007797;28;20026;-71
2022/09/22 07:31:08;;;;;;;47.15;29.05;;;;;;;6.78;99.30;102240.69;4989296;28;20477;-71
2022/09/22 07:33:34;;;;;;;50.03;27.95;;;;;;;6.86;99.40;102244.03;4989267;28;20054;-71
2022/09/22 07:36:21;;;;;;;48.78;28.02;;;;;;;6.97;99.38;102243.63;4988620;28;20049;-71
2022/09/22 07:38:51;;;;;;;47.83;28.08;;;;;;;7.10;99.08;102241.38;4988149;28;20042;-71
2022/09/22 07:41:19;;;;;;;51.88;28.92;;;;;;;7.23;99.67;102240.00;4988113;28;20458;-71
2022/09/22 07:43:47;;;;;;;46.50;29.33;;;;;;;7.34;99.50;102245.91;4991144;28;20124;-71
2022/09/22 07:46:12;;;;;;;45.97;29.20;;;;;;;7.46;98.77;102246.38;5004250;28;20058;-71
2022/09/22 07:48:42;;;;;;;44.15;27.58;;;;;;;7.59;99.08;102240.47;4989416;28;20397;-71
2022/09/22 07:51:20;;;;;;;46.00;28.17;;;;;;;7.77;99.32;102246.13;4991888;28;20041;-70
2022/09/22 07:53:50;;;;;;;47.83;28.30;;;;;;;7.89;98.69;102241.13;4989357;28;20030;-71
2022/09/22 07:56:20;;;;;;;41.03;27.67;;;;;;;7.99;98.09;102246.19;5006758;28;20035;-71
2022/09/22 07:58:51;;;;;;;48.13;27.10;;;;;;;8.03;97.83;102240.59;5007581;28;20033;-71
2022/09/22 08:01:18;;;;;;;48.80;28.27;;;;;;;8.14;98.12;102242.88;4992928;28;20755;-71
2022/09/22 08:03:45;;;;;;;46.10;29.23;;;;;;;8.28;98.06;102250.44;4989003;28;20038;-71
2022/09/22 08:06:11;;;;;;;42.03;28.27;;;;;;;8.41;97.84;102241.78;4988711;28;20553;-71
2022/09/22 08:08:45;;;;;;;47.15;30.13;;;;;;;8.54;97.87;102238.59;4989248;28;20103;-71
2022/09/22 08:11:14;;;;;;;47.85;29.98;;;;;;;8.67;97.73;102229.88;4988960;28;20173;-71
2022/09/22 08:13:52;;;;;;;44.50;29.60;;;;;;;8.76;97.13;102239.41;4989028;28;20121;-71
2022/09/22 08:16:21;;;;;;;41.85;27.08;;;;;;;8.97;96.40;102223.19;5003963;28;20149;-71
2022/09/22 08:18:53;;;;;;;42.95;27.30;;;;;;;9.09;96.25;102233.47;4988852;28;20043;-71
2022/09/22 08:21:18;;;;;;;38.08;26.42;;;;;;;9.19;95.62;102234.88;4988935;28;20104;-71
2022/09/22 08:23:44;;;;;;;41.85;27.02;;;;;;;9.32;94.98;102235.19;4988985;28;20679;-71
2022/09/22 08:26:10;;;;;;;39.83;26.70;;;;;;;9.41;95.45;102224.78;4990628;28;20042;-71
2022/09/22 08:28:35;;;;;;;39.30;26.10;;;;;;;9.51;95.11;102218.91;5002359;28;20038;-71
2022/09/22 08:31:01;;;;;;;41.28;26.23;;;;;;;9.57;95.08;102215.94;4988610;28;20431;-71
2022/09/22 08:33:29;;;;;;;38.83;25.75;;;;;;;9.69;94.33;102221.66;5002622;28;20041;-71
2022/09/22 08:36:02;;;;;;;34.33;23.50;;;;;;;9.84;93.55;102221.91;4988626;28;20042;-70
2022/09/22 08:38:28;;;;;;;;;;;;;;;9.92;93.79;102212.44;4991964;28;20039;-71
2022/09/22 08:41:14;;;;;;;36.17;22.25;;;;;;;10.04;93.65;102226.41;4992654;28;19913;-71
2022/09/22 08:43:54;;;;;;;40.08;23.40;;;;;;;10.14;92.76;102212.28;4992290;28;20074;-71
2022/09/22 08:46:34;;;;;;;30.95;22.00;;;;;;;10.26;92.62;102220.81;4992536;28;20724;-71
2022/09/22 08:51:59;;;;;;;31.08;23.17;;;;;;;10.53;91.23;102216.72;4991486;28;20049;-72
2022/09/22 08:54:30;;;;;;;31.08;22.58;;;;;;;10.65;90.14;102213.41;4991983;28;20061;-71
2022/09/22 08:57:01;;;;;;;29.05;21.98;;;;;;;10.83;90.86;102214.31;5006887;28;20453;-72
2022/09/22 08:59:47;;;;;;;33.40;22.77;;;;;;;10.93;91.29;102223.75;5022922;28;20564;-71
2022/09/22 09:02:34;;;;;;;28.77;21.20;;;;;;;11.01;90.88;102219.78;4991845;28;20132;-72
2022/09/22 09:05:18;;;;;;;28.90;18.58;;;;;;;11.11;87.87;102226.50;4991525;28;20058;-72
2022/09/22 09:07:57;;;;;;;29.17;19.15;;;;;;;11.21;88.40;102222.31;4991744;28;20105;-72
2022/09/22 09:10:55;;;;;;;27.58;18.90;;;;;;;11.39;87.02;102232.22;5007052;28;20121;-72
2022/09/22 09:13:48;;;;;;;23.77;16.60;;;;;;;11.57;86.25;102226.75;4991951;28;20042;-72
2022/09/22 09:16:22;;;;;;;30.17;19.02;;;;;;;11.68;88.12;102219.75;4991379;28;20122;-72
2022/09/22 09:19:27;;;;;;;25.67;17.35;;;;;;;11.85;86.28;102229.75;5006726;28;20048;-72
2022/09/22 09:22:00;;;;;;;23.48;15.25;;;;;;;12.04;84.35;102226.88;4991807;28;20034;-72
2022/09/22 09:24:37;;;;;;;;;;;;;;;12.17;86.16;102221.56;4991801;28;20379;-72
2022/09/22 09:27:12;;;;;;;20.23;13.40;;;;;;;12.41;81.13;102220.19;5000509;28;19913;-72
2022/09/22 09:30:05;;;;;;;18.77;12.18;;;;;;;12.58;82.42;102229.22;5011027;28;20122;-72
2022/09/22 09:32:39;;;;;;;18.55;12.35;;;;;;;12.68;79.60;102224.97;5005511;28;20046;-72
2022/09/22 09:35:10;;;;;;;15.95;11.77;;;;;;;12.85;79.93;102222.13;4991180;28;20434;-72
2022/09/22 09:37:35;;;;;;;13.52;9.30;;;;;;;12.97;76.02;102215.94;5006112;28;20370;-72
2022/09/22 09:40:03;;;;;;;12.50;8.52;;;;;;;13.12;75.60;102221.44;4991238;28;20156;-72
2022/09/22 09:42:33;;;;;;;14.25;8.15;;;;;;;13.30;76.03;102222.19;4991091;28;20041;-72
2022/09/22 09:45:01;;;;;;;13.43;8.68;;;;;;;13.53;77.88;102214.31;4989802;28;20038;-72
2022/09/22 09:47:46;;;;;;;13.13;6.88;;;;;;;13.76;74.61;102210.13;4991021;28;20053;-72
2022/09/22 09:50:13;;;;;;;9.18;7.22;;;;;;;14.14;75.46;102216.81;5005884;28;20488;-73
2022/09/22 09:52:39;;;;;;;12.00;7.25;;;;;;;14.52;77.53;102212.44;4993937;28;20027;-72
2022/09/22 09:55:20;;;;;;;10.40;6.28;;;;;;;14.91;76.87;102209.81;4990982;28;20038;-73
2022/09/22 09:58:09;;;;;;;7.80;5.70;;;;;;;15.24;72.96;102209.34;5005279;28;20123;-73
2022/09/22 10:00:55;;;;;;;6.93;4.40;;;;;;;15.60;69.29;102216.81;5009040;28;20076;-73
2022/09/22 10:03:28;;;;;;;5.82;4.78;;;;;;;15.98;74.19;102207.69;4991459;28;20034;-72
2022/09/22 10:05:59;;;;;;;7.65;4.22;;;;;;;16.21;68.01;102208.75;4990947;28;20046;-72
2022/09/22 10:08:25;;;;;;;6.45;3.72;;;;;;;16.42;65.17;102200.78;4990840;28;20041;-71
2022/09/22 10:10:57;;;;;;;6.65;3.55;;;;;;;16.66;61.40;102206.28;5006075;28;20513;-73
2022/09/22 10:13:27;;;;;;;7.93;3.70;;;;;;;16.79;61.72;102208.00;4990954;28;20057;-73
2022/09/22 10:16:16;;;;;;;5.43;2.97;;;;;;;16.91;62.55;102205.28;4990817;28;20042;-72
2022/09/22 10:18:41;;;;;;;5.72;4.07;;;;;;;17.27;60.03;102202.41;4986973;28;20061;-73
2022/09/22 10:21:14;;;;;;;6.38;2.83;;;;;;;17.53;59.75;102192.09;4990362;28;20042;-73
2022/09/22 10:23:41;;;;;;;4.00;3.30;;;;;;;17.84;60.24;102189.63;4990562;28;20034;-72
2022/09/22 10:26:17;;;;;;;7.72;2.67;;;;;;;17.89;57.35;102184.59;4991525;28;20023;-71
2022/09/22 10:28:43;;;;;;;4.72;2.45;;;;;;;18.19;55.65;102199.63;4998732;28;20034;-73
2022/09/22 10:31:25;;;;;;;5.55;2.15;;;;;;;18.47;58.21;102193.53;4994870;28;20029;-72
2022/09/22 10:33:59;;;;;;;4.32;2.40;;;;;;;18.58;54.49;102190.75;5005638;28;20042;-72
2022/09/22 10:36:27;;;;;;;3.65;1.88;;;;;;;18.73;55.92;102179.44;4990139;28;20045;-71
2022/09/22 10:38:54;;;;;;;4.93;2.33;;;;;;;18.94;54.62;102177.59;4990500;28;20649;-72
2022/09/22 10:41:26;;;;;;;3.83;2.50;;;;;;;18.93;48.71;102175.84;5005618;28;20077;-74
2022/09/22 10:43:59;;;;;;;3.17;2.22;;;;;;;19.37;54.86;102168.31;5005533;28;20351;-73
2022/09/22 10:47:05;;;;;;;2.60;2.40;;;;;;;19.59;55.88;102168.16;5004104;28;20468;-71
2022/09/22 10:49:39;;;;;;;7.57;2.33;;;;;;;19.81;51.09;102172.63;4989948;28;20101;-73
2022/09/22 10:52:08;;;;;;;4.47;3.13;;;;;;;19.96;49.10;102166.72;5005015;28;20046;-74
2022/09/22 10:54:48;;;;;;;3.53;1.63;;;;;;;20.17;52.52;102167.53;5004928;28;20062;-72
2022/09/22 10:57:36;;;;;;;3.83;1.80;;;;;;;20.31;48.34;102167.13;5000299;28;20046;-73
2022/09/22 11:00:12;;;;;;;3.33;1.90;;;;;;;20.36;50.19;102170.31;5009038;28;20518;-73
2022/09/22 11:03:01;;;;;;;3.33;2.40;;;;;;;20.52;53.17;102161.53;4996161;28;20034;-73
2022/09/22 11:15:11;;;;;;;4.45;1.90;;;;;;;21.29;50.20;102156.94;4989584;28;20710;-73
2022/09/22 11:17:52;;;;;;;3.10;1.67;;;;;;;21.44;48.94;102149.06;4989581;28;20048;-74
2022/09/22 11:20:31;;;;;;;3.38;2.00;;;;;;;21.29;45.13;102143.97;5016447;28;20046;-74
2022/09/22 11:23:20;;;;;;;3.10;1.85;;;;;;;21.33;44.26;102152.91;4989597;28;20088;-73
2022/09/22 11:26:10;;;;;;;3.88;2.00;;;;;;;21.33;44.46;102145.47;4989538;28;20117;-73
2022/09/22 11:29:05;;;;;;;3.20;2.10;;;;;;;21.46;47.40;102153.44;4989673;28;20038;-74
2022/09/22 11:31:41;;;;;;;6.07;2.60;;;;;;;21.47;42.12;102141.34;4989491;28;20060;-74
2022/09/22 11:34:23;;;;;;;5.95;2.60;;;;;;;21.61;47.75;102129.78;5003514;28;20042;-74
2022/09/22 11:37:25;;;;;;;6.07;2.63;;;;;;;21.73;43.83;102135.09;4989449;28;20049;-73
2022/09/22 11:40:21;;;;;;;3.75;2.15;;;;;;;21.93;46.27;102133.13;4989924;28;20042;-74
2022/09/22 11:42:57;;;;;;;3.63;2.15;;;;;;;22.06;42.61;102131.75;4989714;28;20035;-74
2022/09/22 11:45:53;;;;;;;3.08;2.40;;;;;;;22.10;44.54;102119.34;4989883;28;20069;-68
2022/09/22 11:48:37;;;;;;;2.45;2.10;;;;;;;22.04;42.04;102119.94;4989288;28;20042;-68
2022/09/22 11:51:30;;;;;;;3.40;2.00;;;;;;;22.09;44.87;102117.56;4989072;28;20034;-68